Flight Track Log - Related Links

Times and Time Zones

All times are in EDT time to prevent confusion due to time zone crossing. See the AVN11 flight status page for this flight to view local times or setup timezone preferences in your user account.

Time Position Orientation Groundspeed Altitude Reporting Facility
EDT Latitude Longitude Course Direction KTS MPH feet Rate Location/Type
Tue 06:42:50 AM -33.9594 151.1794 350° North 84 97  Level FlightAware ADS-B (YRAY)
Tue 06:43:10 AM -33.9483 151.1765 348° North 150 173 750 Level FlightAware ADS-B (YRAY)
Tue 06:43:30 AM -33.9344 151.1728 348° North 152 175 500 1,800 Climbing FlightAware ADS-B (YRAY)
Tue 06:43:50 AM -33.9208 151.1691 347° North 147 169 1,200 1,650 Climbing FlightAware ADS-B (YRAY)
Tue 06:44:10 AM -33.9061 151.1627 340° North 177 204 1,600 1,200 Climbing FlightAware ADS-B (YRAY)
Tue 06:44:20 AM -33.9001 151.1558 317° Northwest 181 208 1,800 1,400 Climbing FlightAware ADS-B (YRAY)
Tue 06:44:40 AM -33.8877 151.1397 313° West 202 232 2,300 2,100 Climbing FlightAware ADS-B (YRAY)
Tue 06:45:00 AM -33.8744 151.1227 313° West 211 243 3,200 2,250 Climbing FlightAware ADS-B (YRAY)
Tue 06:45:20 AM -33.8601 151.1046 314° West 232 267 3,800 1,650 Climbing FlightAware ADS-B (YRAY)
Tue 06:45:40 AM -33.8445 151.0848 314° West 257 296 4,300 2,400 Climbing FlightAware ADS-B (YRAY)
Tue 06:46:15 AM -33.8170 151.0500 314° West 261 300 6,000 3,333 Climbing FlightAware ADS-B
Tue 06:46:16 AM -33.8142 151.0471 314° West 246 283 6,300 2,700 Climbing Aus ATC (RADAR)
Tue 06:46:35 AM -33.8000 151.0290 314° West 261 300 6,900 2,308 Climbing FlightAware ADS-B
Tue 06:46:55 AM -33.7810 151.0090 319° Northwest 270 311 7,800 2,800 Climbing FlightAware ADS-B
Tue 06:47:05 AM -33.7700 151.0050 343° North 284 327 8,300 3,273 Climbing FlightAware ADS-B
Tue 06:47:17 AM -33.7509 151.0047 359° North 290 334 9,000 2,571 Climbing FlightAware ADS-B (YRAY)
Tue 06:47:47 AM -33.7210 151.0280 33° Northeast 306 352 10,100 2,432 Climbing FlightAware ADS-B
Tue 06:47:54 AM -33.7142 151.0440 63° Northeast 313 360 10,500 1,846 Climbing FlightAware ADS-B (YRAY)
Tue 06:48:13 AM -33.7122 151.0793 86° East 338 389 10,900 2,291 Climbing FlightAware ADS-B (YRAY)
Tue 06:48:49 AM -33.7250 151.1473 103° East 354 407 12,600 2,791 Climbing FlightAware ADS-B (YRAY)
Tue 06:49:39 AM -33.7450 151.2453 104° East 372 428 14,900 2,889 Climbing FlightAware ADS-B (YRAY)
Tue 06:50:10 AM -33.7580 151.3090 104° East 384 442 16,500 3,205 Climbing FlightAware ADS-B
Tue 06:50:52 AM -33.7753 151.3993 104° East 388 447 18,800 2,714 Climbing Aus ATC (RADAR)
Tue 06:50:52 AM -33.7740 151.3880 104° East 394 453 18,400 2,667 Descending FlightAware ADS-B
Tue 06:51:28 AM -33.7903 151.4748 104° East 396 456 20,400 2,667 Climbing Aus ATC (RADAR)
Tue 06:51:28 AM -33.7890 151.4680 104° East 403 464 20,000 1,833 Descending FlightAware ADS-B
Tue 06:52:04 AM -33.8060 151.5510 104° East 418 481 21,500 2,696 Climbing FlightAware ADS-B
Tue 06:52:37 AM -33.8212 151.6331 104° East 416 479 23,100 2,333 Climbing Aus ATC (RADAR)
Tue 06:52:40 AM -33.8220 151.6360 104° East 427 491 22,900 2,294 Descending FlightAware ADS-B
Tue 06:53:11 AM -33.8367 151.7111 104° East 426 490 24,400 2,647 Climbing Aus ATC (RADAR)
Tue 06:53:14 AM -33.8380 151.7160 104° East 432 497 24,400 1,500 Level FlightAware ADS-B
Tue 06:53:23 AM -33.8423 151.7397 102° East 433 498 24,700 2,154 Climbing FlightAware ADS-B
Tue 06:53:53 AM -33.8563 151.8121 103° East 439 505 25,800 2,100 Climbing FlightAware ADS-B
Tue 06:54:23 AM -33.8703 151.8843 103° East 447 514 26,800 1,935 Climbing FlightAware ADS-B
Tue 06:54:55 AM -33.8851 151.9608 103° East 454 522 27,800 1,826 Climbing FlightAware ADS-B
Tue 06:55:32 AM -33.9020 152.0525 103° East 448 516 28,900 1,538 Climbing Aus ATC (RADAR)
Tue 06:55:34 AM -33.9020 152.0550 103° East 462 532 28,800 1,543 Descending FlightAware ADS-B
Tue 06:56:07 AM -33.9073 152.1431 103° East 457 526 29,800 1,333 Climbing Aus ATC (RADAR)
Tue 06:56:10 AM -33.9070 152.1470 103° East 472 543 29,600 1,021 Descending FlightAware ADS-B
Tue 06:56:54 AM -33.9080 152.2660 91° East 485 558 30,600 1,172 Climbing FlightAware ADS-B
Tue 06:57:37 AM -33.9080 152.3740 90° East 495 570 31,300 1,367 Climbing FlightAware ADS-B
Tue 06:58:13 AM -33.9060 152.4740 89° East 495 570 32,400 1,840 Climbing FlightAware ADS-B
Tue 06:58:52 AM -33.9050 152.5860 89° East 490 564 33,600 1,667 Climbing FlightAware ADS-B
Tue 06:59:25 AM -33.9050 152.6740 89° East 491 565 34,400 1,737 Climbing FlightAware ADS-B
Tue 06:59:30 AM -33.9053 152.6950 89° East 484 557 34,700 909 Climbing Aus ATC (RADAR)
Tue 06:59:58 AM -33.9060 152.7620 89° East 497 572 34,900 938 Climbing FlightAware ADS-B
Tue 07:00:02 AM -33.9055 152.7815 89° East 479 551 35,200 1,395 Climbing Aus ATC (RADAR)
Tue 07:00:41 AM -33.9017 152.8914 89° East 479 551 35,900 769 Climbing Aus ATC (RADAR)
Tue 07:00:41 AM -33.9000 152.8830 89° East 453 521 35,700  Descending FlightAware ADS-B
Tue 07:00:56 AM -33.8880 152.9190 68° East 495 570 35,900 1,000 Climbing FlightAware ADS-B
Tue 07:01:11 AM -33.8650 152.9560 53° Northeast 485 558 36,200 1,071 Climbing FlightAware ADS-B
Tue 07:01:52 AM -33.7940 153.0280 40° Northeast 489 563 36,900 632 Climbing FlightAware ADS-B
Tue 07:02:27 AM -33.7320 153.0910 40° Northeast 487 560 37,000 474 Climbing FlightAware ADS-B
Tue 07:02:30 AM -33.7252 153.0974 40° Northeast 488 562 37,200  Climbing Aus ATC (RADAR)
Tue 07:03:02 AM -33.6720 153.1520 40° Northeast 485 558 37,000  Descending FlightAware ADS-B
Tue 07:03:05 AM -33.6652 153.1585 40° Northeast 487 560 37,200  Climbing Aus ATC (RADAR)
Tue 07:03:37 AM -33.6140 153.2100 40° Northeast 486 559 37,000  Descending FlightAware ADS-B
Tue 07:04:16 AM -33.5427 153.2818 40° Northeast 477 549 37,200  Climbing Aus ATC (RADAR)
Tue 07:04:26 AM -33.5330 153.2920 40° Northeast 486 559 37,000 -267 Descending FlightAware ADS-B
Tue 07:05:01 AM -33.4690 153.3560 40° Northeast 486 559 37,000  Level FlightAware ADS-B
Tue 07:05:44 AM -33.3960 153.4290 40° Northeast 487 560 37,000  Level FlightAware ADS-B
Tue 07:06:25 AM -33.3260 153.4990 40° Northeast 489 563 37,000 267 Level FlightAware ADS-B
Tue 07:06:29 AM -33.3120 153.5122 40° Northeast 488 562 37,200  Climbing Aus ATC (RADAR)
Tue 07:07:00 AM -33.2670 153.5570 39° Northeast 489 563 37,000 -185 Descending FlightAware ADS-B
Tue 07:07:34 AM -33.2040 153.6200 39° Northeast 490 564 37,000 333 Level FlightAware ADS-B
Tue 07:07:36 AM -33.1968 153.6270 39° Northeast 480 552 37,200  Climbing Aus ATC (RADAR)
Tue 07:08:10 AM -33.1440 153.6800 39° Northeast 491 565 37,000  Descending FlightAware ADS-B
Tue 07:08:11 AM -33.1356 153.6874 39° Northeast 481 554 37,200  Climbing Aus ATC (RADAR)
Tue 07:08:43 AM -33.0850 153.7380 39° Northeast 492 566 37,000 -179 Descending FlightAware ADS-B
Tue 07:09:18 AM -33.0240 153.7970 39° Northeast 493 567 37,000  Level FlightAware ADS-B
Tue 07:09:55 AM -32.9570 153.8630 39° Northeast 494 568 37,000 293 Level FlightAware ADS-B
Tue 07:09:59 AM -32.9448 153.8751 39° Northeast 495 570 37,200  Climbing Aus ATC (RADAR)
Tue 07:10:31 AM -32.8940 153.9260 40° Northeast 495 570 37,000 -182 Descending FlightAware ADS-B
Tue 07:11:05 AM -32.8330 153.9840 39° Northeast 494 568 37,000  Level FlightAware ADS-B
Tue 07:11:38 AM -32.7750 154.0420 40° Northeast 488 562 37,000  Level FlightAware ADS-B
Tue 07:12:17 AM -32.7040 154.1110 39° Northeast 497 572 37,000 930 Level FlightAware ADS-B
Tue 07:12:49 AM -32.6446 154.1695 39° Northeast 496 571 38,100 1,371 Climbing Aus ATC (RADAR)
Tue 07:12:52 AM -32.6430 154.1710 39° Northeast 496 571 37,800 419 Descending FlightAware ADS-B
Tue 07:13:32 AM -32.5720 154.2400 39° Northeast 486 559 38,400 833 Climbing FlightAware ADS-B
Tue 07:14:04 AM -32.5128 154.2976 39° Northeast 496 571 38,800 343 Climbing Aus ATC (RADAR)
Tue 07:14:07 AM -32.5150 154.2950 39° Northeast 499 574 38,600  Descending FlightAware ADS-B
Tue 07:14:39 AM -32.4550 154.3530 39° Northeast 508 585 38,800 667 Climbing FlightAware ADS-B
Tue 07:15:10 AM -32.3925 154.4135 39° Northeast 499 574 39,300 558 Climbing Aus ATC (RADAR)
Tue 07:15:22 AM -32.3740 154.4310 39° Northeast 502 578 39,200 511 Descending FlightAware ADS-B
Tue 07:15:57 AM -32.3120 154.4910 39° Northeast 509 586 39,700 667 Climbing FlightAware ADS-B
Tue 07:16:34 AM -32.2460 154.5550 39° Northeast 510 587 40,000 243 Climbing FlightAware ADS-B
Tue 07:17:11 AM -32.1750 154.6230 39° Northeast 511 588 40,000  Level FlightAware ADS-B
Tue 07:17:47 AM -32.1110 154.6840 39° Northeast 512 589 40,000  Level FlightAware ADS-B
Tue 07:18:23 AM -32.0430 154.7500 39° Northeast 512 589 40,000  Level FlightAware ADS-B
Tue 07:18:59 AM -31.9790 154.8110 39° Northeast 514 592 40,000  Level FlightAware ADS-B
Tue 07:19:38 AM -31.9080 154.8780 39° Northeast 514 592 40,000  Level FlightAware ADS-B
Tue 07:20:10 AM -31.8540 154.9290 39° Northeast 515 593 40,000  Level FlightAware ADS-B
Tue 07:20:48 AM -31.7800 155.0000 39° Northeast 516 594 40,000  Level FlightAware ADS-B
Tue 07:21:31 AM -31.7080 155.0690 39° Northeast 516 594 40,000  Level FlightAware ADS-B
Tue 07:22:04 AM -31.6370 155.1360 39° Northeast 518 596 40,000 243 Level FlightAware ADS-B
Tue 07:22:45 AM -31.5544 155.2136 39° Northeast 503 579 40,300  Climbing Aus ATC (RADAR)
Tue 07:22:45 AM -31.5620 155.2070 39° Northeast 519 597 40,000  Descending FlightAware ADS-B
Tue 07:23:19 AM -31.4893 155.2753 39° Northeast 503 579 40,300  Climbing Aus ATC (RADAR)
Tue 07:23:24 AM -31.5000 155.2650 39° Northeast 519 597 40,000 -150 Descending FlightAware ADS-B
Tue 07:23:59 AM -31.4145 155.3456 39° Northeast 503 579 40,200  Climbing Aus ATC (RADAR)
Tue 07:24:00 AM -31.4430 155.3200 39° Northeast 519 597 40,000 176 Descending FlightAware ADS-B
Tue 07:24:33 AM -31.3504 155.4056 39° Northeast 519 597 40,300  Climbing Aus ATC (RADAR)
Tue 07:24:35 AM -31.3540 155.4030 39° Northeast 519 597 40,000 -375 Descending FlightAware ADS-B
Tue 07:25:21 AM -31.2860 155.4650 38° Northeast 519 597 40,000  Level FlightAware ADS-B
Tue 07:25:57 AM -31.2290 155.5180 38° Northeast 519 597 40,000  Level FlightAware ADS-B
Tue 07:26:33 AM -31.1710 155.5700 37° Northeast 519 597 40,000 250 Level FlightAware ADS-B
Tue 07:27:09 AM -31.0574 155.6785 37° Northeast 504 580 40,300  Climbing Aus ATC (RADAR)
Tue 07:27:09 AM -31.1130 155.6230 37° Northeast 519 597 40,000 -486 Descending FlightAware ADS-B
Tue 07:27:46 AM -31.0530 155.6780 38° Northeast 519 597 40,000  Level FlightAware ADS-B
Tue 07:28:22 AM -30.9950 155.7300 38° Northeast 519 597 40,000  Level FlightAware ADS-B
Tue 07:28:58 AM -30.9370 155.7830 38° Northeast 519 597 40,000  Level FlightAware ADS-B
Tue 07:29:34 AM -30.8800 155.8360 39° Northeast 519 597 40,000  Level FlightAware ADS-B
Tue 07:30:10 AM -30.8220 155.8880 38° Northeast 519 597 40,000  Level FlightAware ADS-B
Tue 07:30:46 AM -30.7640 155.9410 38° Northeast 519 597 40,000  Level FlightAware ADS-B
Tue 07:31:22 AM -30.7060 155.9940 38° Northeast 519 597 40,000  Level FlightAware ADS-B
Tue 07:31:58 AM -30.6480 156.0460 38° Northeast 519 597 40,000  Level FlightAware ADS-B
Tue 07:32:34 AM -30.5900 156.0990 38° Northeast 519 597 40,000  Level FlightAware ADS-B
Tue 07:33:10 AM -30.5320 156.1510 38° Northeast 519 597 40,000  Level FlightAware ADS-B
Tue 07:33:46 AM -30.4740 156.2040 38° Northeast 519 597 40,000  Level FlightAware ADS-B
Tue 07:34:22 AM -30.4160 156.2560 38° Northeast 519 597 40,000 188 Level FlightAware ADS-B
Tue 07:35:22 AM -30.2292 156.6799 38° Northeast 527 606 40,300 200 Climbing Aus ATC (RADAR)
Tue 07:35:52 AM -30.1807 156.7434 49° Northeast 526 605 40,300  Level Aus ATC (RADAR)
Tue 07:36:22 AM -30.1317 156.8067 48° Northeast 527 606 40,300  Level Aus ATC (RADAR)
Tue 07:36:57 AM -30.0747 156.8808 48° Northeast 527 606 40,300  Level Aus ATC (RADAR)
Tue 07:37:42 AM -30.0009 156.9762 48° Northeast 529 609 40,300  Level Aus ATC (RADAR)
Tue 07:38:17 AM -29.9434 157.0505 48° Northeast 530 610 40,300  Level Aus ATC (RADAR)
Tue 07:38:51 AM -29.8858 157.1250 48° Northeast 532 612 40,300  Level Aus ATC (RADAR)
Tue 07:39:31 AM -29.8205 157.2097 48° Northeast 529 609 40,300  Level Aus ATC (RADAR)
Tue 07:40:06 AM -29.7620 157.2846 48° Northeast 534 615 40,300  Level Aus ATC (RADAR)
Tue 07:40:41 AM -29.7042 157.3589 48° Northeast 533 613 40,300  Level Aus ATC (RADAR)
Tue 07:41:11 AM -29.6546 157.4221 48° Northeast 531 611 40,300  Level Aus ATC (RADAR)
Tue 07:41:41 AM -29.6044 157.4857 48° Northeast 533 613 40,300  Level Aus ATC (RADAR)
Tue 07:42:26 AM -29.5300 157.5809 48° Northeast 532 612 40,300 -383 Level Aus ATC (RADAR)
Tue 07:42:28 AM -29.5290 157.5810 48° Northeast 531 611 40,000 -462 Descending FlightAware ADS-B
Tue 07:43:05 AM -29.4700 157.6560 48° Northeast 536 617 40,000  Level FlightAware ADS-B
Tue 07:43:42 AM -29.4290 157.7090 48° Northeast 536 617 40,000  Level FlightAware ADS-B
Tue 07:44:20 AM -29.3440 157.8160 48° Northeast 534 615 40,000  Level FlightAware ADS-B
Tue 07:44:57 AM -29.2920 157.8820 48° Northeast 534 615 40,000  Level FlightAware ADS-B
Tue 07:45:31 AM -29.2450 157.9420 48° Northeast 534 615 40,000  Level FlightAware ADS-B
Tue 07:46:08 AM -29.1930 158.0090 48° Northeast 534 615 40,000  Level FlightAware ADS-B
Tue 07:46:44 AM -29.1420 158.0730 48° Northeast 534 615 40,000  Level FlightAware ADS-B
Tue 07:47:20 AM -29.0910 158.1370 48° Northeast 534 615 40,000  Level FlightAware ADS-B
Tue 07:47:56 AM -29.0410 158.2020 49° Northeast 534 615 40,000  Level FlightAware ADS-B
Tue 07:48:32 AM -28.9900 158.2660 48° Northeast 534 615 40,000  Level FlightAware ADS-B
Tue 07:49:08 AM -28.9400 158.3300 48° Northeast 534 615 40,000  Level FlightAware ADS-B
Tue 07:49:45 AM -28.8880 158.3960 48° Northeast 534 615 40,000  Level FlightAware ADS-B
Tue 07:50:19 AM -28.8400 158.4570 48° Northeast 534 615 40,000  Level FlightAware ADS-B
Tue 07:50:55 AM -28.7890 158.5210 48° Northeast 534 615 40,000  Level FlightAware ADS-B
Tue 07:51:31 AM -28.7390 158.5850 48° Northeast 534 615 40,000  Level FlightAware ADS-B
Tue 07:52:07 AM -28.6880 158.6490 48° Northeast 534 615 40,000  Level FlightAware ADS-B
Tue 07:52:26 AM -28.4968 158.8719 225° Southwest 39,000  Descending Aus ATC (Calculated)
Tue 07:52:45 AM -28.6350 158.7160 48° Northeast 534 615 40,000 1,091 Climbing FlightAware ADS-B
Tue 07:53:21 AM -28.5840 158.7800 48° Northeast 534 615 40,000  Level FlightAware ADS-B
Tue 07:53:57 AM -28.5330 158.8440 48° Northeast 534 615 40,000  Level FlightAware ADS-B
Tue 07:54:46 AM -28.2542 159.1718 47° Northeast 39,000 -652 Descending Aus ATC (Calculated)
Tue 07:55:29 AM -28.2039 159.2333 227° Southwest 39,000  Level Aus ATC (Calculated)
Tue 07:57:00 AM -28.3320 159.0765 227° Southwest  Level FlightAware Approximate
Tue 07:57:35 AM -28.0054 159.4751 47° Northeast 39,000  Level Aus ATC (Calculated)
Tue 07:57:55 AM -27.9589 159.5316 47° Northeast 39,000  Level Aus ATC (Calculated)
Tue 07:58:55 AM -27.8671 159.6427 227° Southwest 39,000  Level Aus ATC (Calculated)
Tue 07:59:00 AM -28.0506 159.4201 227° Southwest  Level FlightAware Approximate
Tue 08:00:00 AM -27.7639 159.7404 47° Northeast  Level Estimated
Tue 08:00:20 AM -27.7336 159.8039 33° Northeast 39,000  Level Aus ATC (Calculated)
Tue 08:01:00 AM -27.6793 159.8432 47° Northeast  Level FlightAware Approximate
Tue 08:02:00 AM -27.5919 159.9743 47° Northeast  Level FlightAware Approximate
Tue 08:03:00 AM -27.5067 160.0764 47° Northeast  Level FlightAware Approximate
Tue 08:04:00 AM -27.4215 160.1782 47° Northeast  Level FlightAware Approximate
Tue 08:05:00 AM -27.3363 160.2800 47° Northeast  Level FlightAware Approximate
Tue 08:05:14 AM -27.2655 160.3641 47° Northeast 39,000  Level Aus ATC (Calculated)
Tue 08:06:54 AM -27.0888 160.5738 227° Southwest 39,000  Level Aus ATC (Calculated)
Tue 08:07:00 AM -27.1146 160.5432 47° Northeast  Level FlightAware Approximate
Tue 08:08:00 AM -26.9946 160.6850 46° Northeast  Level FlightAware Approximate
Tue 08:08:14 AM -26.9582 160.7280 46° Northeast 39,000  Level Aus ATC (Calculated)
Tue 08:08:54 AM -26.8969 160.8002 46° Northeast 39,000  Level Aus ATC (Calculated)
Tue 08:10:00 AM -26.8026 160.9110 46° Northeast  Level FlightAware Approximate
Tue 08:11:00 AM -26.7168 161.0116 46° Northeast  Level FlightAware Approximate
Tue 08:11:00 AM -26.7187 161.0094 46° Northeast 39,000  Level Aus ATC (Calculated)
Tue 08:12:00 AM -26.6328 161.1099 46° Northeast  Level FlightAware Approximate
Tue 08:13:00 AM -26.5468 161.2102 46° Northeast  Level FlightAware Approximate
Tue 08:13:00 AM -26.5028 161.2615 46° Northeast 39,000  Level Aus ATC (Calculated)
Tue 08:14:00 AM -26.4168 161.3615 46° Northeast  Level FlightAware Approximate
Tue 08:15:00 AM -26.3307 161.4615 46° Northeast  Level FlightAware Approximate
Tue 08:16:00 AM -26.2445 161.5612 46° Northeast  Level FlightAware Approximate
Tue 08:17:00 AM -26.1582 161.6609 46° Northeast  Level FlightAware Approximate
Tue 08:18:00 AM -26.0719 161.7604 46° Northeast  Level FlightAware Approximate
Tue 08:19:00 AM -25.9855 161.8597 46° Northeast  Level FlightAware Approximate
Tue 08:20:00 AM -25.8990 161.9589 46° Northeast  Level FlightAware Approximate
Tue 08:21:00 AM -25.8125 162.0579 46° Northeast  Level FlightAware Approximate
Tue 08:22:00 AM -25.7259 162.1568 46° Northeast  Level FlightAware Approximate
Tue 08:23:00 AM -25.6393 162.2556 46° Northeast  Level FlightAware Approximate
Tue 08:23:00 AM -25.5057 162.4073 226° Southwest 39,000  Level Aus ATC (Calculated)
Tue 08:24:00 AM -25.5525 162.3542 46° Northeast  Level FlightAware Approximate
Tue 08:25:00 AM -25.3320 162.6040 46° Northeast  Level FlightAware Approximate
Tue 08:26:00 AM -25.2451 162.7021 46° Northeast  Level FlightAware Approximate
Tue 08:27:00 AM -25.1580 162.8001 46° Northeast  Level FlightAware Approximate
Tue 08:28:00 AM -25.0709 162.8979 46° Northeast  Level FlightAware Approximate
Tue 08:29:00 AM -24.9838 162.9956 45° Northeast  Level FlightAware Approximate
Tue 08:30:00 AM -24.8966 163.0931 45° Northeast  Level FlightAware Approximate
Tue 08:31:00 AM -24.9838 162.9956 225° Southwest  Level FlightAware Approximate
Tue 08:32:00 AM -24.8966 163.0931 45° Northeast  Level FlightAware Approximate
Tue 08:33:00 AM -24.9838 162.9956 225° Southwest  Level FlightAware Approximate
Tue 08:34:00 AM -24.8966 163.0931 45° Northeast  Level FlightAware Approximate
Tue 08:35:00 AM -24.9838 162.9956 225° Southwest  Level FlightAware Approximate
Tue 08:36:00 AM -24.8966 163.0931 45° Northeast  Level FlightAware Approximate
Tue 08:37:00 AM -24.9838 162.9956 225° Southwest  Level FlightAware Approximate
Tue 08:38:00 AM -24.8956 163.0940 45° Northeast  Level FlightAware Approximate
Tue 08:39:00 AM -24.8083 163.1914 45° Northeast  Level FlightAware Approximate
Tue 08:40:00 AM -24.7209 163.2886 45° Northeast  Level FlightAware Approximate
Tue 08:41:00 AM -24.6334 163.3856 45° Northeast  Level FlightAware Approximate
Tue 08:42:00 AM -24.5458 163.4825 45° Northeast  Level FlightAware Approximate
Tue 08:43:00 AM -24.4582 163.5793 45° Northeast  Level FlightAware Approximate
Tue 08:44:00 AM -24.3706 163.6760 45° Northeast  Level FlightAware Approximate
Tue 08:45:00 AM -24.2828 163.7725 45° Northeast  Level FlightAware Approximate
Tue 08:46:00 AM -24.1950 163.8689 45° Northeast  Level FlightAware Approximate
Tue 08:47:00 AM -24.1072 163.9652 45° Northeast  Level FlightAware Approximate
Tue 08:48:00 AM -24.0193 164.0613 45° Northeast  Level FlightAware Approximate
Tue 08:49:00 AM -23.9313 164.1573 45° Northeast  Level FlightAware Approximate
Tue 08:50:00 AM -23.8433 164.2531 45° Northeast  Level FlightAware Approximate
Tue 08:51:00 AM -23.7552 164.3489 45° Northeast  Level FlightAware Approximate
Tue 08:52:00 AM -23.6671 164.4445 45° Northeast  Level FlightAware Approximate
Tue 08:53:00 AM -23.5789 164.5399 45° Northeast  Level FlightAware Approximate
Tue 08:54:00 AM -23.4906 164.6353 45° Northeast  Level FlightAware Approximate
Tue 08:55:00 AM -23.4023 164.7305 45° Northeast  Level FlightAware Approximate
Tue 08:56:00 AM -23.3139 164.8256 45° Northeast  Level FlightAware Approximate
Tue 08:57:00 AM -23.2254 164.9205 45° Northeast  Level FlightAware Approximate
Tue 08:58:00 AM -23.1369 165.0153 45° Northeast  Level FlightAware Approximate
Tue 08:59:00 AM -23.0483 165.1100 45° Northeast  Level FlightAware Approximate
Tue 09:00:00 AM -22.9597 165.2046 45° Northeast  Level FlightAware Approximate
Tue 09:01:00 AM -22.8710 165.2990 44° Northeast  Level FlightAware Approximate
Tue 09:02:00 AM -22.7823 165.3933 44° Northeast  Level FlightAware Approximate
Tue 09:03:00 AM -22.6935 165.4875 44° Northeast  Level FlightAware Approximate
Tue 09:04:00 AM -22.6047 165.5816 44° Northeast  Level FlightAware Approximate
Tue 09:05:00 AM -22.5158 165.6756 44° Northeast  Level FlightAware Approximate
Tue 09:06:00 AM -22.4268 165.7694 44° Northeast  Level FlightAware Approximate
Tue 09:07:00 AM -22.3378 165.8631 44° Northeast  Level FlightAware Approximate
Tue 09:08:00 AM -22.2487 165.9567 44° Northeast  Level FlightAware Approximate
Tue 09:09:00 AM -22.1596 166.0502 44° Northeast  Level FlightAware Approximate
Tue 09:10:00 AM -22.0704 166.1435 44° Northeast  Level FlightAware Approximate
Tue 09:11:00 AM -21.9747 166.2264 24° Northeast  Level FlightAware Approximate
Tue 09:12:00 AM -21.8612 166.2808 24° Northeast  Level FlightAware Approximate
Tue 09:13:00 AM -21.7477 166.3352 24° Northeast  Level FlightAware Approximate
Tue 09:14:00 AM -21.6342 166.3895 24° Northeast  Level FlightAware Approximate
Tue 09:15:00 AM -21.5207 166.4437 24° Northeast  Level FlightAware Approximate
Tue 09:16:00 AM -21.4071 166.4978 24° Northeast  Level FlightAware Approximate
Tue 09:17:00 AM -21.2935 166.5518 24° Northeast  Level FlightAware Approximate
Tue 09:18:00 AM -21.1799 166.6058 24° Northeast  Level FlightAware Approximate
Tue 09:19:00 AM -21.0663 166.6596 24° Northeast  Level FlightAware Approximate
Tue 09:20:00 AM -20.9527 166.7134 24° Northeast  Level FlightAware Approximate
Tue 09:21:00 AM -20.8391 166.7671 24° Northeast  Level FlightAware Approximate
Tue 09:22:00 AM -20.7254 166.8207 24° Northeast  Level FlightAware Approximate
Tue 09:23:00 AM -20.6117 166.8743 24° Northeast  Level FlightAware Approximate
Tue 09:24:00 AM -20.4980 166.9277 24° Northeast  Level FlightAware Approximate
Tue 09:25:00 AM -20.3843 166.9811 24° Northeast  Level FlightAware Approximate
Tue 09:26:00 AM -20.2706 167.0344 24° Northeast  Level FlightAware Approximate
Tue 09:27:00 AM -20.1569 167.0876 24° Northeast  Level FlightAware Approximate
Tue 09:28:00 AM -20.0431 167.1408 24° Northeast  Level FlightAware Approximate
Tue 09:29:00 AM -19.9293 167.1938 24° Northeast  Level FlightAware Approximate
Tue 09:30:00 AM -19.8155 167.2468 24° Northeast  Level FlightAware Approximate
Tue 09:31:00 AM -19.7017 167.2997 24° Northeast  Level FlightAware Approximate
Tue 09:32:00 AM -19.5879 167.3526 24° Northeast  Level FlightAware Approximate
Tue 09:33:00 AM -19.4741 167.4054 24° Northeast  Level FlightAware Approximate
Tue 09:34:00 AM -19.3604 167.4585 24° Northeast  Level FlightAware Approximate
Tue 09:35:00 AM -19.2467 167.5115 24° Northeast  Level FlightAware Approximate
Tue 09:36:00 AM -19.1330 167.5644 24° Northeast  Level FlightAware Approximate
Tue 09:37:00 AM -19.0192 167.6172 24° Northeast  Level FlightAware Approximate
Tue 09:38:00 AM -18.9055 167.6700 24° Northeast  Level FlightAware Approximate
Tue 09:39:00 AM -18.7917 167.7227 24° Northeast  Level FlightAware Approximate
Tue 09:40:00 AM -18.6779 167.7753 24° Northeast  Level FlightAware Approximate
Tue 09:41:00 AM -18.5641 167.8279 24° Northeast  Level FlightAware Approximate
Tue 09:42:00 AM -18.4504 167.8805 24° Northeast  Level FlightAware Approximate
Tue 09:43:00 AM -18.3366 167.9332 24° Northeast  Level FlightAware Approximate
Tue 09:44:00 AM -18.2229 167.9858 24° Northeast  Level FlightAware Approximate
Tue 09:45:00 AM -18.1091 168.0383 24° Northeast  Level FlightAware Approximate
Tue 09:46:00 AM -17.9954 168.0907 24° Northeast  Level FlightAware Approximate
Tue 09:47:00 AM -17.8816 168.1431 24° Northeast  Level FlightAware Approximate
Tue 09:48:00 AM -17.7678 168.1954 24° Northeast  Level FlightAware Approximate
Tue 09:49:00 AM -17.6621 168.2439 24° Northeast  Level FlightAware Approximate
Tue 09:50:00 AM -17.6993 168.3198 24° Northeast  Level Estimated
Tue 09:51:00 AM -17.6993 168.3198 24° Northeast  Level Estimated
Tue 09:52:00 AM -17.6993 168.3198 24° Northeast  Level Estimated
Tue 09:53:00 AM -17.6993 168.3198 24° Northeast  Level Estimated
Tue 09:54:00 AM -17.6993 168.3198 24° Northeast  Level Estimated
Tue 09:55:00 AM -17.6993 168.3198 24° Northeast  Level Estimated
Tue 09:56:00 AM -17.6993 168.3198 24° Northeast  Level Estimated
Tue 09:57:00 AM -17.6993 168.3198 24° Northeast  Level Estimated
Tue 09:58:00 AM -17.6993 168.3198 24° Northeast  Level Estimated

Login

Don't have an account? Register now (free) for customized features, flight alerts, and more!